Time;durP1;ratioP1;P1;durP2;ratioP2;P2;SDS_P1;SDS_P2;PMS_P1;PMS_P2;Temp;Humidity;BMP_temperature;BMP_pressure;BME280_temperature;BME280_humidity;BME280_pressure;Samples;Min_cycle;Max_cycle;Signal;HPM_P1;HPM_P2
2021/11/26 00:01:34;;;;;;;5.72;2.30;;;;;;;4.05;100.00;100837.44;5011356;28;20085;-78
2021/11/26 00:04:04;;;;;;;8.45;2.13;;;;;;;4.10;100.00;100825.09;5004025;28;20087;-78
2021/11/26 00:06:36;;;;;;;9.60;1.38;;;;;;;4.17;100.00;100832.13;5010408;28;20067;-79
2021/11/26 00:09:05;;;;;;;3.80;1.23;;;;;;;4.23;100.00;100823.25;5006478;28;20119;-69
2021/11/26 00:11:39;;;;;;;10.07;1.58;;;;;;;4.24;100.00;100815.34;5008331;28;20381;-68
2021/11/26 00:14:12;;;;;;;;;;;;;;;4.27;100.00;100810.03;5000504;28;20585;-68
2021/11/26 00:16:42;;;;;;;3.83;1.17;;;;;;;4.30;100.00;100785.34;5008780;28;19964;-69
2021/11/26 00:19:10;;;;;;;2.53;1.00;;;;;;;4.28;100.00;100779.22;5004986;28;20053;-69
2021/11/26 00:21:42;;;;;;;3.63;1.10;;;;;;;4.27;100.00;100775.69;5005248;28;20116;-69
2021/11/26 00:24:12;;;;;;;1.25;1.10;;;;;;;4.28;100.00;100768.63;5007446;28;20055;-69
2021/11/26 00:26:42;;;;;;;4.28;1.08;;;;;;;4.30;100.00;100766.84;5007755;28;20045;-70
2021/11/26 00:29:10;;;;;;;3.50;0.93;;;;;;;4.26;100.00;100758.09;5004783;28;20140;-67
2021/11/26 00:31:38;;;;;;;6.75;1.38;;;;;;;4.20;100.00;100751.97;5034411;28;20049;-68
2021/11/26 00:34:07;;;;;;;2.13;1.30;;;;;;;4.13;100.00;100740.56;5011048;28;20100;-70
2021/11/26 00:36:36;;;;;;;2.28;0.77;;;;;;;4.09;100.00;100738.84;5006236;28;20057;-69
2021/11/26 00:39:06;;;;;;;5.05;1.27;;;;;;;4.09;100.00;100747.63;5002809;28;20561;-68
2021/11/26 00:41:34;;;;;;;2.55;1.48;;;;;;;4.06;100.00;100750.28;5007745;28;20072;-70
2021/11/26 00:44:05;;;;;;;3.03;0.93;;;;;;;4.06;100.00;100749.41;5004846;28;20486;-68
2021/11/26 00:46:33;;;;;;;6.07;1.35;;;;;;;4.10;100.00;100744.13;5009882;28;20045;-68
2021/11/26 00:49:02;;;;;;;5.25;1.15;;;;;;;4.13;100.00;100750.25;5001515;28;20088;-68
2021/11/26 00:51:31;;;;;;;5.00;1.45;;;;;;;4.04;100.00;100757.34;5007910;28;20156;-68
2021/11/26 00:53:59;;;;;;;5.95;1.98;;;;;;;3.79;100.00;100756.63;5004638;28;20065;-68
2021/11/26 00:56:27;;;;;;;6.57;1.70;;;;;;;3.68;100.00;100748.75;5000850;28;20449;-68
2021/11/26 00:58:55;;;;;;;5.53;1.33;;;;;;;3.65;100.00;100746.13;5006454;28;20081;-68
2021/11/26 01:01:25;;;;;;;6.47;1.20;;;;;;;3.63;100.00;100739.13;5008634;28;20121;-68
2021/11/26 01:03:54;;;;;;;3.05;1.23;;;;;;;3.63;100.00;100716.25;5007651;28;20041;-70
2021/11/26 01:06:22;;;;;;;8.02;2.50;;;;;;;3.61;100.00;100717.13;5004246;28;20054;-68
2021/11/26 01:08:50;;;;;;;2.05;0.88;;;;;;;3.57;100.00;100721.53;5005970;28;20117;-67
2021/11/26 01:11:18;;;;;;;6.75;1.67;;;;;;;3.54;100.00;100716.28;5003243;28;20057;-70
2021/11/26 01:13:46;;;;;;;5.32;1.40;;;;;;;3.50;100.00;100715.41;5005379;28;20277;-70
2021/11/26 01:16:14;;;;;;;7.53;1.92;;;;;;;3.50;100.00;100714.56;5002047;28;20168;-70
2021/11/26 01:18:43;;;;;;;3.88;1.40;;;;;;;3.47;100.00;100704.88;5004463;28;20424;-78
2021/11/26 01:21:11;;;;;;;5.07;1.20;;;;;;;3.43;100.00;100697.88;5003359;28;20141;-79
2021/11/26 01:23:40;;;;;;;7.13;1.50;;;;;;;3.41;100.00;100690.88;5008015;28;20060;-78
2021/11/26 01:26:08;;;;;;;4.40;1.40;;;;;;;3.39;100.00;100697.88;5000070;28;20072;-78
2021/11/26 01:28:35;;;;;;;5.20;1.40;;;;;;;3.38;100.00;100690.88;5005373;28;20133;-76
2021/11/26 01:31:04;;;;;;;4.00;1.30;;;;;;;3.33;100.00;100686.47;5003394;28;20137;-79
2021/11/26 01:33:32;;;;;;;6.88;2.08;;;;;;;3.35;100.00;100682.09;5006008;28;20089;-78
2021/11/26 01:36:02;;;;;;;4.45;1.48;;;;;;;3.37;100.00;100682.06;5003788;28;20075;-78
2021/11/26 01:38:30;;;;;;;3.67;1.35;;;;;;;3.40;100.00;100675.91;5010744;28;20131;-76
2021/11/26 01:40:59;;;;;;;6.50;1.50;;;;;;;3.43;100.00;100665.34;4999544;28;20243;-77
2021/11/26 01:43:27;;;;;;;7.85;1.83;;;;;;;3.45;100.00;100671.50;5008894;28;20614;-77
2021/11/26 01:46:05;;;;;;;8.23;1.55;;;;;;;3.49;100.00;100665.28;5004241;28;20132;-77
2021/11/26 01:48:33;;;;;;;5.57;1.40;;;;;;;3.51;100.00;100688.16;5003967;28;20172;-76
2021/11/26 01:51:04;;;;;;;8.15;1.95;;;;;;;3.52;100.00;100687.28;5002302;28;20141;-77
2021/11/26 01:53:33;;;;;;;12.05;2.03;;;;;;;3.54;100.00;100676.69;5003841;28;20365;-77
2021/11/26 01:56:01;;;;;;;3.22;1.38;;;;;;;3.59;100.00;100666.13;5004777;28;20163;-78
2021/11/26 01:58:29;;;;;;;11.20;2.25;;;;;;;3.61;100.00;100656.44;5002733;28;20054;-78
2021/11/26 02:01:00;;;;;;;2.28;1.25;;;;;;;3.62;100.00;100660.84;5006362;28;20623;-78
2021/11/26 02:03:29;;;;;;;6.50;1.52;;;;;;;3.63;100.00;100647.63;5007186;28;21045;-69
2021/11/26 02:05:57;;;;;;;5.72;1.63;;;;;;;3.63;100.00;100644.13;5002484;28;20406;-69
2021/11/26 02:08:26;;;;;;;7.95;1.80;;;;;;;3.68;100.00;100640.56;5006380;28;20042;-69
2021/11/26 02:10:54;;;;;;;7.35;1.67;;;;;;;3.83;100.00;100647.50;5002651;28;20141;-69
2021/11/26 02:13:22;;;;;;;7.60;1.55;;;;;;;3.82;100.00;100640.47;5004938;28;20545;-69
2021/11/26 02:15:52;;;;;;;3.78;1.70;;;;;;;3.85;100.00;100632.53;5003487;28;20052;-69
2021/11/26 02:18:20;;;;;;;5.15;1.42;;;;;;;3.84;100.00;100621.97;5007873;28;20045;-69
2021/11/26 02:20:49;;;;;;;6.35;1.55;;;;;;;3.85;100.00;100595.56;5001908;28;20099;-69
2021/11/26 02:23:17;;;;;;;7.72;1.95;;;;;;;3.82;100.00;100594.72;5004529;28;20573;-69
2021/11/26 02:25:45;;;;;;;3.95;1.77;;;;;;;3.78;100.00;100587.69;5003705;28;20049;-69
2021/11/26 02:28:16;;;;;;;4.15;1.38;;;;;;;3.75;100.00;100578.06;5004567;28;20550;-77
2021/11/26 02:30:45;;;;;;;4.93;1.85;;;;;;;3.72;100.00;100572.78;5000966;28;20123;-78
2021/11/26 02:33:15;;;;;;;5.53;1.50;;;;;;;3.67;100.00;100564.91;5004924;28;20053;-77
2021/11/26 02:35:47;;;;;;;5.65;1.75;;;;;;;3.62;100.00;100560.56;4999629;28;20490;-78
2021/11/26 02:38:16;;;;;;;8.35;1.70;;;;;;;3.54;100.00;100539.50;5004859;28;20053;-78
2021/11/26 02:40:45;;;;;;;3.72;1.50;;;;;;;3.51;100.00;100542.19;5002604;28;20045;-78
2021/11/26 02:43:14;;;;;;;2.75;1.42;;;;;;;3.41;100.00;100532.59;5006011;28;20136;-78
2021/11/26 02:45:44;;;;;;;5.20;1.55;;;;;;;3.33;100.00;100522.97;4999171;28;20981;-78
2021/11/26 02:48:13;;;;;;;6.18;1.80;;;;;;;3.29;100.00;100521.25;5005661;28;20045;-78
2021/11/26 02:50:43;;;;;;;4.55;1.40;;;;;;;3.25;100.00;100522.16;5004043;28;20327;-78
2021/11/26 02:53:11;;;;;;;4.25;1.50;;;;;;;3.20;100.00;100518.66;5003257;28;20045;-78
2021/11/26 02:55:40;;;;;;;2.13;1.15;;;;;;;3.15;100.00;100515.16;5006044;28;20121;-79
2021/11/26 02:58:08;;;;;;;3.00;1.20;;;;;;;3.13;100.00;100509.94;5001886;28;20089;-78
2021/11/26 03:00:39;;;;;;;4.13;1.58;;;;;;;3.12;100.00;100507.31;5006050;28;20057;-78
2021/11/26 03:03:09;;;;;;;2.55;1.20;;;;;;;3.11;100.00;100497.63;4999460;28;20057;-78
2021/11/26 03:05:37;;;;;;;2.75;1.25;;;;;;;3.10;100.00;100495.88;5007420;28;20046;-78
2021/11/26 03:08:06;;;;;;;3.15;1.35;;;;;;;3.07;100.00;100490.66;4999958;28;20060;-78
2021/11/26 03:10:34;;;;;;;3.92;1.30;;;;;;;3.09;100.00;100487.09;5008998;28;20572;-78
2021/11/26 03:13:07;;;;;;;4.10;1.45;;;;;;;3.07;100.00;100478.34;5001079;28;20140;-78
2021/11/26 03:15:37;;;;;;;8.20;1.88;;;;;;;3.05;100.00;100474.84;5005064;28;20050;-79
2021/11/26 03:18:05;;;;;;;7.00;1.60;;;;;;;3.02;100.00;100473.97;5004421;28;20096;-79
2021/11/26 03:20:34;;;;;;;5.45;1.65;;;;;;;2.98;100.00;100463.47;5005273;28;20038;-79
2021/11/26 03:23:02;;;;;;;4.68;2.00;;;;;;;2.96;100.00;100464.34;5005569;28;20081;-79
2021/11/26 03:25:30;;;;;;;7.43;2.13;;;;;;;2.95;100.00;100454.69;4999608;28;20075;-78
2021/11/26 03:27:58;;;;;;;4.68;1.45;;;;;;;2.92;100.00;100441.53;5004364;28;20143;-79
2021/11/26 03:30:28;;;;;;;8.30;2.38;;;;;;;2.91;100.00;100440.66;5001637;28;20068;-79
2021/11/26 03:32:56;;;;;;;5.55;1.98;;;;;;;2.86;100.00;100425.75;5003463;28;20110;-79
2021/11/26 03:35:25;;;;;;;6.20;1.63;;;;;;;2.87;100.00;100411.69;5007062;28;20123;-79
2021/11/26 03:37:53;;;;;;;10.32;1.73;;;;;;;2.89;100.00;100410.78;5005096;28;20067;-79
2021/11/26 03:40:23;;;;;;;7.82;2.22;;;;;;;2.90;100.00;100406.41;5002042;28;20049;-78
2021/11/26 03:42:52;;;;;;;4.78;1.90;;;;;;;2.87;100.00;100404.66;5007147;28;20252;-79
2021/11/26 03:45:23;;;;;;;9.38;2.97;;;;;;;2.86;100.00;100405.56;5004747;28;20073;-70
2021/11/26 03:47:53;;;;;;;7.80;2.45;;;;;;;2.86;100.00;100395.03;5009990;28;20148;-70
2021/11/26 03:50:23;;;;;;;7.22;2.15;;;;;;;2.93;100.00;100402.00;5006642;28;20073;-70
2021/11/26 03:52:51;;;;;;;7.28;2.28;;;;;;;2.93;100.00;100396.72;5003760;28;20077;-70
2021/11/26 03:55:24;;;;;;;10.90;2.17;;;;;;;2.93;100.00;100396.72;5009438;28;20586;-70
2021/11/26 03:57:52;;;;;;;11.68;2.92;;;;;;;2.92;100.00;100386.19;5034238;28;20593;-70
2021/11/26 04:00:20;;;;;;;11.50;2.78;;;;;;;2.95;100.00;100383.53;5004017;28;20244;-70
2021/11/26 04:02:48;;;;;;;6.65;2.30;;;;;;;2.96;100.00;100380.88;5005669;28;20056;-70
2021/11/26 04:05:19;;;;;;;4.60;2.30;;;;;;;3.01;100.00;100370.28;5008012;28;20049;-70
2021/11/26 04:07:48;;;;;;;8.88;2.42;;;;;;;3.03;100.00;100362.38;5004146;28;20053;-70
2021/11/26 04:10:17;;;;;;;13.32;2.47;;;;;;;3.03;100.00;100362.38;5007116;28;20049;-79
2021/11/26 04:12:47;;;;;;;11.65;2.67;;;;;;;3.04;100.00;100349.16;5009842;28;20141;-78
2021/11/26 04:15:16;;;;;;;9.07;2.47;;;;;;;3.07;100.00;100350.94;5003830;28;20057;-79
2021/11/26 04:17:46;;;;;;;7.95;2.58;;;;;;;3.09;100.00;100346.50;5009384;28;20103;-70
2021/11/26 04:20:15;;;;;;;11.18;3.15;;;;;;;3.11;100.00;100342.09;5010176;28;20063;-70
2021/11/26 04:22:47;;;;;;;12.18;2.90;;;;;;;3.23;100.00;100338.47;5004091;28;20111;-70
2021/11/26 04:25:17;;;;;;;8.75;2.25;;;;;;;3.18;100.00;100327.94;5005055;28;20144;-70
2021/11/26 04:27:46;;;;;;;9.55;3.28;;;;;;;3.20;100.00;100323.53;5005113;28;20064;-70
2021/11/26 04:30:15;;;;;;;8.40;2.63;;;;;;;3.18;100.00;100320.03;5006280;28;20176;-70
2021/11/26 04:32:43;;;;;;;8.75;2.83;;;;;;;3.22;100.00;100315.59;5005264;28;20052;-70
2021/11/26 04:35:11;;;;;;;12.38;2.92;;;;;;;3.16;100.00;100312.13;5007463;28;20123;-70
2021/11/26 04:37:40;;;;;;;8.60;2.63;;;;;;;3.29;100.00;100301.50;5002272;28;20056;-70
2021/11/26 04:40:12;;;;;;;12.00;2.63;;;;;;;3.19;100.00;100295.44;5005777;28;20053;-69
2021/11/26 04:42:42;;;;;;;11.23;2.65;;;;;;;3.13;100.00;100293.75;5005334;28;20069;-69
2021/11/26 04:45:12;;;;;;;11.90;3.03;;;;;;;3.13;100.00;100285.84;5010362;28;20071;-71
2021/11/26 04:47:40;;;;;;;9.25;2.25;;;;;;;3.09;100.00;100280.59;5004124;28;20176;-70
2021/11/26 04:50:11;;;;;;;6.28;2.50;;;;;;;3.06;100.00;100276.22;5007255;28;20050;-70
2021/11/26 04:52:39;;;;;;;13.18;3.67;;;;;;;3.04;100.00;100269.22;5002434;28;20064;-70
2021/11/26 04:55:11;;;;;;;8.13;3.25;;;;;;;3.00;100.00;100260.47;5003849;28;20140;-71
2021/11/26 04:57:39;;;;;;;5.40;1.90;;;;;;;2.96;100.00;100259.66;5000695;28;20064;-71
2021/11/26 05:00:09;;;;;;;4.50;2.10;;;;;;;2.99;100.00;100253.44;5007623;28;20068;-69
2021/11/26 05:02:38;;;;;;;10.60;3.40;;;;;;;3.00;100.00;100244.66;5003360;28;20512;-69
2021/11/26 05:05:06;;;;;;;8.43;2.58;;;;;;;2.98;100.00;100246.44;5006738;28;20049;-69
2021/11/26 05:07:37;;;;;;;9.45;2.00;;;;;;;2.94;100.00;100234.19;5001755;28;20212;-69
2021/11/26 05:10:08;;;;;;;7.53;2.70;;;;;;;2.90;100.00;100225.44;5006911;28;20104;-68
2021/11/26 05:12:39;;;;;;;8.15;2.80;;;;;;;2.82;100.00;100218.50;5003039;28;20645;-69
2021/11/26 05:15:11;;;;;;;9.55;2.42;;;;;;;2.76;100.00;100214.16;5004373;28;20054;-69
2021/11/26 05:17:39;;;;;;;9.02;2.58;;;;;;;2.76;100.00;100207.13;5000454;28;20627;-77
2021/11/26 05:20:08;;;;;;;7.57;2.35;;;;;;;2.71;100.00;100198.41;5007174;28;20083;-77
2021/11/26 05:22:40;;;;;;;9.35;3.13;;;;;;;2.67;100.00;100199.31;5002854;28;20057;-77
2021/11/26 05:25:08;;;;;;;8.30;2.40;;;;;;;2.72;100.00;100184.31;5005897;28;20487;-77
2021/11/26 05:27:37;;;;;;;7.07;2.55;;;;;;;2.74;100.00;100176.41;5005042;28;20132;-77
2021/11/26 05:30:07;;;;;;;10.13;3.15;;;;;;;2.69;100.00;100163.31;5007497;28;20144;-77
2021/11/26 05:32:35;;;;;;;6.45;2.53;;;;;;;2.72;100.00;100165.88;5002908;28;20058;-68
2021/11/26 05:35:03;;;;;;;12.73;3.47;;;;;;;2.66;100.00;100155.41;5004502;28;20064;-68
2021/11/26 05:37:32;;;;;;;7.60;2.83;;;;;;;2.64;100.00;100148.41;5005111;28;20144;-68
2021/11/26 05:40:04;;;;;;;9.85;4.10;;;;;;;2.61;100.00;100141.44;5005617;28;20106;-69
2021/11/26 05:42:34;;;;;;;9.48;3.05;;;;;;;2.64;100.00;100135.25;5003681;28;20060;-69
2021/11/26 05:45:04;;;;;;;8.32;2.60;;;;;;;2.63;100.00;100129.09;5003183;28;20488;-69
2021/11/26 05:47:33;;;;;;;8.40;2.72;;;;;;;2.62;100.00;100119.44;5004498;28;20102;-68
2021/11/26 05:50:01;;;;;;;6.22;2.60;;;;;;;2.66;100.00;100112.41;5007912;28;20612;-69
2021/11/26 05:52:29;;;;;;;7.25;2.33;;;;;;;2.67;100.00;100104.47;4999807;28;20056;-69
2021/11/26 05:54:56;;;;;;;11.15;2.72;;;;;;;2.69;100.00;100100.06;5005570;28;20478;-69
2021/11/26 05:57:25;;;;;;;13.13;3.00;;;;;;;2.66;100.00;100101.88;5001092;28;20649;-69
2021/11/26 05:59:53;;;;;;;7.03;2.60;;;;;;;2.67;100.00;100098.31;5007168;28;20478;-68
2021/11/26 06:02:22;;;;;;;5.00;1.95;;;;;;;2.61;100.00;100094.88;4989243;28;20049;-68
2021/11/26 06:04:50;;;;;;;4.85;2.20;;;;;;;2.69;100.00;100089.53;5003339;28;20133;-69
2021/11/26 06:07:18;;;;;;;11.93;2.65;;;;;;;2.70;100.00;100087.75;5003675;28;20077;-68
2021/11/26 06:09:46;;;;;;;9.48;2.38;;;;;;;2.64;100.00;100070.28;5006245;28;20124;-68
2021/11/26 06:12:19;;;;;;;5.15;2.13;;;;;;;2.68;100.00;100077.25;5002112;28;20072;-68
2021/11/26 06:14:49;;;;;;;5.03;2.28;;;;;;;2.70;100.00;100064.06;5005456;28;20050;-69
2021/11/26 06:17:17;;;;;;;11.85;3.17;;;;;;;2.72;100.00;100059.63;5000025;28;20144;-68
2021/11/26 06:19:48;;;;;;;4.07;2.10;;;;;;;2.73;100.00;100053.47;5008405;28;20245;-68
2021/11/26 06:22:18;;;;;;;15.27;2.83;;;;;;;2.76;100.00;100046.41;5000702;28;20110;-68
2021/11/26 06:24:46;;;;;;;7.60;2.40;;;;;;;2.84;100.00;100045.44;5009041;28;20060;-70
2021/11/26 06:27:14;;;;;;;5.22;2.20;;;;;;;2.88;100.00;100040.09;5003655;28;20521;-70
2021/11/26 06:29:43;;;;;;;10.57;2.50;;;;;;;2.88;100.00;100029.56;5006475;28;20099;-70
2021/11/26 06:32:11;;;;;;;7.72;2.40;;;;;;;2.94;100.00;100036.50;5002663;28;20064;-70
2021/11/26 06:34:39;;;;;;;8.13;2.38;;;;;;;2.95;100.00;100031.22;5001357;28;20058;-69
2021/11/26 06:37:09;;;;;;;6.82;2.15;;;;;;;3.00;99.54;100020.63;5006515;28;20080;-70
2021/11/26 06:39:37;;;;;;;10.20;2.67;;;;;;;3.10;99.73;100008.16;5007255;28;20060;-68
2021/11/26 06:42:08;;;;;;;7.32;2.42;;;;;;;3.16;98.28;100006.31;5005205;28;20041;-68
2021/11/26 06:44:37;;;;;;;5.78;2.40;;;;;;;3.21;98.80;99998.34;5000906;28;20149;-75
2021/11/26 06:47:05;;;;;;;6.72;2.90;;;;;;;3.24;98.67;99992.16;5006494;28;20248;-77
2021/11/26 06:49:34;;;;;;;7.55;2.47;;;;;;;3.23;99.20;99990.41;5000670;28;20056;-76
2021/11/26 06:52:02;;;;;;;11.27;3.28;;;;;;;3.29;98.32;99983.28;5000575;28;20136;-76
2021/11/26 06:54:31;;;;;;;7.72;3.05;;;;;;;3.41;96.83;99976.06;5005778;28;20428;-77
2021/11/26 06:56:59;;;;;;;8.70;2.45;;;;;;;3.47;95.97;99971.53;5005371;28;20116;-75
2021/11/26 06:59:26;;;;;;;5.18;2.42;;;;;;;3.52;95.62;99976.75;5003333;28;20052;-76
2021/11/26 07:01:55;;;;;;;8.77;2.75;;;;;;;3.51;97.22;99970.59;5004901;28;20107;-75
2021/11/26 07:04:24;;;;;;;5.65;2.60;;;;;;;3.52;96.46;99961.81;5008036;28;20058;-76
2021/11/26 07:06:52;;;;;;;5.57;2.08;;;;;;;3.59;95.56;99957.25;5002261;28;20049;-76
2021/11/26 07:09:20;;;;;;;12.13;3.25;;;;;;;3.62;94.82;99946.66;5004724;28;20125;-77
2021/11/26 07:11:49;;;;;;;7.22;2.50;;;;;;;3.66;94.84;99951.00;5002552;28;20144;-68
2021/11/26 07:14:38;;;;;;;5.82;2.22;;;;;;;3.68;94.17;99937.78;5004935;28;20189;-68
2021/11/26 07:17:07;;;;;;;8.68;2.63;;;;;;;3.70;94.25;99934.22;5002715;28;20510;-68
2021/11/26 07:19:37;;;;;;;9.65;2.45;;;;;;;3.69;94.13;99919.25;5006082;28;20423;-67
2021/11/26 07:22:06;;;;;;;6.32;2.75;;;;;;;3.67;94.20;99907.88;5010815;28;20049;-68
2021/11/26 07:24:36;;;;;;;8.02;2.40;;;;;;;3.66;94.25;99898.25;5010902;28;20053;-68
2021/11/26 07:27:08;;;;;;;3.22;1.80;;;;;;;3.76;92.88;99895.41;5006470;28;20050;-68
2021/11/26 07:29:36;;;;;;;9.77;2.28;;;;;;;3.80;93.01;99887.41;5008872;28;20130;-68
2021/11/26 07:32:06;;;;;;;7.20;2.00;;;;;;;3.86;92.55;99887.28;5005577;28;20079;-68
2021/11/26 07:34:39;;;;;;;9.60;2.28;;;;;;;3.86;93.09;99881.13;5009180;28;20491;-67
2021/11/26 07:37:12;;;;;;;10.70;2.83;;;;;;;3.83;93.72;99882.09;5002922;28;20049;-67
2021/11/26 07:39:41;;;;;;;9.23;2.67;;;;;;;3.87;94.23;99873.19;5005797;28;20048;-67
2021/11/26 07:42:12;;;;;;;8.52;2.85;;;;;;;3.85;94.53;99869.72;5010680;28;20873;-67
2021/11/26 07:44:43;;;;;;;6.30;2.50;;;;;;;3.84;94.79;99875.03;5007908;28;20057;-67
2021/11/26 07:47:15;;;;;;;8.77;3.35;;;;;;;3.86;94.70;99874.06;5002391;28;20053;-67
2021/11/26 07:49:46;;;;;;;9.75;2.65;;;;;;;3.85;95.70;99864.44;5006508;28;20098;-67
2021/11/26 07:52:15;;;;;;;7.30;2.00;;;;;;;3.89;95.55;99857.31;5006797;28;20053;-67
2021/11/26 07:54:44;;;;;;;9.93;2.58;;;;;;;3.90;95.22;99843.25;5004671;28;20057;-67
2021/11/26 07:57:16;;;;;;;8.45;2.55;;;;;;;3.90;96.27;99838.81;5003822;28;20510;-67
2021/11/26 07:59:45;;;;;;;11.18;3.08;;;;;;;3.90;96.44;99830.03;5004371;28;20139;-67
2021/11/26 08:02:14;;;;;;;7.30;2.72;;;;;;;3.99;96.57;99827.19;5007150;28;20077;-67
2021/11/26 08:04:42;;;;;;;6.40;2.13;;;;;;;4.01;96.63;99817.47;5007297;28;20607;-67
2021/11/26 08:07:10;;;;;;;10.32;2.17;;;;;;;3.95;98.29;99808.81;5004627;28;20042;-67
2021/11/26 08:09:40;;;;;;;5.05;2.17;;;;;;;4.01;97.72;99813.97;5004688;28;20092;-67
2021/11/26 08:12:11;;;;;;;7.63;2.25;;;;;;;4.03;97.30;99807.75;5002526;28;20050;-67
2021/11/26 08:14:43;;;;;;;8.15;2.67;;;;;;;4.03;97.94;99786.63;5005340;28;20108;-67
2021/11/26 08:17:14;;;;;;;7.28;2.08;;;;;;;4.06;97.41;99773.34;5008154;28;20046;-69
2021/11/26 08:19:45;;;;;;;9.05;2.15;;;;;;;4.07;97.72;99782.13;5001246;28;20057;-69
2021/11/26 08:22:17;;;;;;;7.57;2.33;;;;;;;4.09;97.67;99767.16;5007552;28;20046;-69
2021/11/26 08:24:45;;;;;;;14.45;4.97;;;;;;;4.16;97.01;99768.75;5006032;28;20334;-67
2021/11/26 08:27:13;;;;;;;8.70;2.50;;;;;;;4.14;97.81;99756.47;5003386;28;20073;-69
2021/11/26 08:29:45;;;;;;;11.45;2.90;;;;;;;4.14;97.67;99751.19;5001242;28;20135;-68
2021/11/26 08:32:12;;;;;;;8.85;2.53;;;;;;;4.19;97.36;99747.56;5005388;28;20489;-69
2021/11/26 08:34:42;;;;;;;7.25;2.50;;;;;;;4.23;96.32;99749.22;5001960;28;20146;-68
2021/11/26 08:37:09;;;;;;;3.65;2.20;;;;;;;4.19;97.97;99744.03;5008179;28;20104;-69
2021/11/26 08:39:37;;;;;;;10.18;2.85;;;;;;;4.13;98.38;99731.00;5006387;28;20055;-69
2021/11/26 08:42:08;;;;;;;4.28;1.95;;;;;;;4.08;100.00;99731.94;5004957;28;20080;-69
2021/11/26 08:44:37;;;;;;;9.48;2.90;;;;;;;4.06;100.00;99725.84;5005749;28;20045;-69
2021/11/26 08:47:07;;;;;;;9.07;2.60;;;;;;;4.05;99.63;99715.31;5006624;28;20401;-69
2021/11/26 08:49:36;;;;;;;9.52;2.30;;;;;;;4.10;99.64;99710.78;5007189;28;20152;-70
2021/11/26 08:52:05;;;;;;;9.77;2.90;;;;;;;4.06;99.91;99707.34;5001555;28;20064;-68
2021/11/26 08:54:35;;;;;;;9.75;3.80;;;;;;;4.00;99.71;99699.59;5006298;28;20045;-67
2021/11/26 08:57:03;;;;;;;9.38;3.53;;;;;;;3.95;100.00;99688.28;5005994;28;20209;-68
2021/11/26 08:59:30;;;;;;;9.70;3.85;;;;;;;4.00;100.00;99681.13;5010064;28;20149;-68
2021/11/26 09:02:00;;;;;;;8.48;3.10;;;;;;;3.98;100.00;99671.50;5002747;28;20050;-69
2021/11/26 09:04:32;;;;;;;17.95;3.50;;;;;;;3.97;100.00;99661.81;5007767;28;20100;-69
2021/11/26 09:07:01;;;;;;;7.05;3.65;;;;;;;3.94;100.00;99660.13;5007440;28;20548;-74
2021/11/26 09:09:29;;;;;;;14.32;3.50;;;;;;;3.92;100.00;99661.94;5007003;28;20192;-73
2021/11/26 09:11:57;;;;;;;12.07;3.83;;;;;;;3.96;100.00;99666.25;5000138;28;20061;-72
2021/11/26 09:14:24;;;;;;;6.57;2.70;;;;;;;3.93;100.00;99647.84;5010273;28;20099;-74
2021/11/26 09:16:52;;;;;;;7.97;3.10;;;;;;;3.93;100.00;99642.56;5002595;28;20149;-74
2021/11/26 09:19:20;;;;;;;11.15;3.72;;;;;;;3.93;100.00;99632.88;5005735;28;20799;-73
2021/11/26 09:21:49;;;;;;;12.30;3.75;;;;;;;4.00;100.00;99630.97;5003025;28;20073;-73
2021/11/26 09:24:17;;;;;;;8.43;3.60;;;;;;;3.97;100.00;99625.75;5002597;28;20061;-73
2021/11/26 09:26:45;;;;;;;8.57;3.13;;;;;;;4.00;100.00;99623.03;5004946;28;20060;-73
2021/11/26 09:29:13;;;;;;;8.07;2.92;;;;;;;4.01;100.00;99618.63;5006802;28;20056;-73
2021/11/26 09:31:41;;;;;;;6.70;2.95;;;;;;;4.05;100.00;99615.00;5005812;28;20849;-73
2021/11/26 09:34:09;;;;;;;10.55;3.47;;;;;;;4.09;100.00;99611.38;5002907;28;20059;-73
2021/11/26 09:36:37;;;;;;;10.55;3.13;;;;;;;4.13;100.00;99604.25;5001825;28;20055;-74
2021/11/26 09:39:11;;;;;;;8.02;3.35;;;;;;;4.13;100.00;99601.63;5009026;28;20491;-68
2021/11/26 09:41:46;;;;;;;13.63;3.40;;;;;;;4.17;100.00;99597.97;4999818;28;20274;-68
2021/11/26 09:44:19;;;;;;;7.07;3.28;;;;;;;4.20;100.00;99598.75;5002619;28;20799;-68
2021/11/26 09:46:48;;;;;;;7.78;3.00;;;;;;;4.21;100.00;99582.03;5001101;28;20168;-69
2021/11/26 09:49:27;;;;;;;8.77;2.78;;;;;;;4.30;100.00;99575.63;5003260;28;20231;-68
2021/11/26 09:51:57;;;;;;;6.40;2.38;;;;;;;4.37;100.00;99574.56;5001938;28;20245;-68
2021/11/26 09:54:28;;;;;;;10.40;3.45;;;;;;;4.42;100.00;99555.94;5002457;28;20057;-68
2021/11/26 09:57:01;;;;;;;;;;;;;;;4.44;100.00;99552.38;5004169;28;20139;-68
2021/11/26 09:59:39;;;;;;;8.23;2.55;;;;;;;4.49;100.00;99552.22;5006165;28;20030;-68
2021/11/26 10:02:12;;;;;;;8.27;3.10;;;;;;;4.55;100.00;99530.06;5003559;28;20049;-68
2021/11/26 10:04:42;;;;;;;11.75;3.03;;;;;;;4.57;100.00;99530.88;4986920;28;20184;-68
2021/11/26 10:07:18;;;;;;;8.40;2.47;;;;;;;4.59;100.00;99521.13;4999141;28;20289;-69
2021/11/26 10:10:19;;;;;;;13.10;2.53;;;;;;;4.58;99.31;99512.34;5006532;28;20058;-69
2021/11/26 10:13:03;;;;;;;9.93;2.63;;;;;;;4.48;99.54;99501.19;5000918;28;20053;-68
2021/11/26 10:15:46;;;;;;;6.43;2.78;;;;;;;4.44;99.97;99501.31;5008171;28;20132;-69
2021/11/26 10:18:22;;;;;;;8.75;2.92;;;;;;;4.41;100.00;99481.13;5001056;28;20100;-68
2021/11/26 10:21:09;;;;;;;12.25;3.65;;;;;;;4.37;100.00;99474.19;5002867;28;20116;-69
2021/11/26 10:23:44;;;;;;;10.85;2.97;;;;;;;4.36;100.00;99454.00;4998958;28;20142;-68
2021/11/26 10:26:18;;;;;;;10.05;3.38;;;;;;;4.30;100.00;99443.59;5007949;28;20083;-73
2021/11/26 10:28:49;;;;;;;14.82;3.80;;;;;;;4.30;100.00;99452.38;5006256;28;20062;-73
2021/11/26 10:31:24;;;;;;;13.65;4.00;;;;;;;4.25;100.00;99434.94;5001173;28;20100;-69
2021/11/26 10:34:19;;;;;;;9.73;3.20;;;;;;;4.30;100.00;99415.41;5004070;28;20046;-76
2021/11/26 10:36:49;;;;;;;12.60;3.92;;;;;;;4.28;100.00;99404.03;5007739;28;20060;-76
2021/11/26 10:39:23;;;;;;;13.20;4.28;;;;;;;4.29;100.00;99394.31;5003151;28;20223;-76
2021/11/26 10:41:55;;;;;;;14.15;4.78;;;;;;;4.26;nan;99386.50;5003717;28;20081;-77
2021/11/26 10:44:36;;;;;;;10.93;3.58;;;;;;;4.34;100.00;99379.19;5003208;28;20050;-75
2021/11/26 10:47:12;;;;;;;18.25;4.50;;;;;;;4.30;100.00;99372.28;5003316;28;20045;-75
2021/11/26 10:49:46;;;;;;;12.20;5.05;;;;;;;4.20;100.00;99350.56;5001798;28;20053;-76
2021/11/26 10:52:24;;;;;;;11.20;3.65;;;;;;;4.27;100.00;99362.69;5003058;28;20140;-76
2021/11/26 11:00:24;;;;;;;14.20;4.67;;;;;;;4.24;100.00;99312.63;5001858;28;20050;-76
2021/11/26 11:02:55;;;;;;;18.15;3.90;;;;;;;4.32;100.00;99309.72;5004377;28;20053;-77
2021/11/26 11:05:28;;;;;;;13.10;5.15;;;;;;;4.34;100.00;99299.13;5002771;28;20065;-76
2021/11/26 11:07:56;;;;;;;19.23;5.50;;;;;;;4.35;100.00;99283.22;5004059;28;20342;-77
2021/11/26 11:10:27;;;;;;;13.98;4.03;;;;;;;4.40;100.00;99270.75;4999997;28;20050;-77
2021/11/26 11:12:59;;;;;;;8.93;3.80;;;;;;;4.29;100.00;99278.13;5003185;28;20508;-76
2021/11/26 11:15:27;;;;;;;7.70;2.67;;;;;;;4.35;100.00;99254.16;4999536;28;20510;-77
2021/11/26 11:17:54;;;;;;;17.45;4.43;;;;;;;4.29;100.00;99255.25;5005345;28;20488;-77
2021/11/26 11:20:24;;;;;;;11.35;4.53;;;;;;;4.21;100.00;99244.06;5000171;28;20054;-76
2021/11/26 11:22:53;;;;;;;8.35;3.30;;;;;;;4.18;100.00;99238.00;5006836;28;20053;-77
2021/11/26 11:25:27;;;;;;;10.82;3.58;;;;;;;4.15;100.00;99230.19;4998211;28;20583;-76
2021/11/26 11:27:58;;;;;;;13.35;5.28;;;;;;;4.05;100.00;99212.00;5001918;28;20588;-76
2021/11/26 11:30:27;;;;;;;11.10;5.03;;;;;;;4.07;100.00;99198.72;4999905;28;20145;-76
2021/11/26 11:32:55;;;;;;;11.70;4.70;;;;;;;4.13;100.00;99189.78;5004377;28;20042;-76
2021/11/26 11:35:26;;;;;;;17.67;6.10;;;;;;;4.05;100.00;99193.53;5003840;28;20315;-74
2021/11/26 11:37:55;;;;;;;18.05;5.22;;;;;;;4.11;100.00;99180.09;4996859;28;20053;-76
2021/11/26 11:40:28;;;;;;;16.70;5.20;;;;;;;4.06;100.00;99163.56;5005902;28;20641;-74
2021/11/26 11:43:12;;;;;;;18.85;6.07;;;;;;;4.08;100.00;99160.88;5002557;28;20064;-68
2021/11/26 11:45:53;;;;;;;16.20;5.13;;;;;;;4.09;100.00;99163.47;5004857;28;20057;-68
2021/11/26 11:48:27;;;;;;;15.07;5.05;;;;;;;3.98;100.00;99149.72;5002804;28;20479;-66